createdAt,value
2023-08-29T00:01:59.963Z,18.79
2023-08-29T00:04:26.595Z,18.78
2023-08-29T00:06:53.296Z,18.77
2023-08-29T00:09:22.851Z,18.75
2023-08-29T00:11:54.010Z,18.74
2023-08-29T00:14:20.675Z,18.72
2023-08-29T00:16:47.298Z,18.72
2023-08-29T00:19:16.124Z,18.70
2023-08-29T00:21:43.082Z,18.67
2023-08-29T00:24:10.053Z,18.66
2023-08-29T00:26:36.774Z,18.65
2023-08-29T00:29:03.418Z,18.63
2023-08-29T00:31:35.027Z,18.63
2023-08-29T00:34:01.661Z,18.62
2023-08-29T00:36:28.302Z,18.60
2023-08-29T00:38:54.961Z,18.59
2023-08-29T00:41:21.576Z,18.57
2023-08-29T00:43:48.240Z,18.56
2023-08-29T00:46:18.104Z,18.55
2023-08-29T00:48:45.039Z,18.53
2023-08-29T00:51:11.893Z,18.53
2023-08-29T00:53:41.082Z,18.51
2023-08-29T00:56:11.117Z,18.48
2023-08-29T00:58:37.808Z,18.48
2023-08-29T01:01:04.786Z,18.45
2023-08-29T01:03:31.945Z,18.45
2023-08-29T01:05:58.582Z,18.43
2023-08-29T01:08:25.662Z,18.42
2023-08-29T01:11:26.097Z,18.41
2023-08-29T01:13:58.438Z,18.40
2023-08-29T01:16:40.238Z,18.38
2023-08-29T01:19:14.197Z,18.37
2023-08-29T01:21:50.876Z,18.36
2023-08-29T01:24:31.490Z,18.33
2023-08-29T01:27:01.957Z,18.32
2023-08-29T01:29:29.281Z,18.31
2023-08-29T01:31:58.841Z,18.29
2023-08-29T01:34:26.379Z,18.28
2023-08-29T01:36:53.298Z,18.27
2023-08-29T01:39:22.377Z,18.24
2023-08-29T01:41:48.998Z,18.23
2023-08-29T01:44:15.622Z,18.21
2023-08-29T01:46:42.249Z,18.21
2023-08-29T01:49:09.050Z,18.21
2023-08-29T01:51:35.735Z,18.17
2023-08-29T01:54:02.441Z,18.18
2023-08-29T01:56:33.620Z,18.16
2023-08-29T01:59:00.513Z,18.16
2023-08-29T02:01:31.540Z,18.15
2023-08-29T02:04:00.793Z,18.14
2023-08-29T02:06:32.226Z,18.12
2023-08-29T02:08:58.869Z,18.12
2023-08-29T02:11:25.567Z,18.11
2023-08-29T02:13:52.176Z,18.09
2023-08-29T02:16:18.872Z,18.08
2023-08-29T02:18:45.503Z,18.07
2023-08-29T02:21:12.139Z,18.05
2023-08-29T02:23:40.973Z,18.04
2023-08-29T02:26:10.206Z,18.03
2023-08-29T02:28:38.710Z,18.02
2023-08-29T02:31:14.660Z,18.01
2023-08-29T02:33:44.557Z,18.00
2023-08-29T02:36:11.192Z,17.98
2023-08-29T02:38:40.141Z,17.97
2023-08-29T02:41:07.607Z,17.97
2023-08-29T02:43:34.262Z,17.95
2023-08-29T02:46:01.022Z,17.94
2023-08-29T02:48:29.052Z,17.93
2023-08-29T02:51:00.464Z,17.92
2023-08-29T02:53:27.134Z,17.90
2023-08-29T02:55:54.100Z,17.90
2023-08-29T02:58:21.557Z,17.90
2023-08-29T03:00:49.222Z,17.88
2023-08-29T03:03:17.447Z,17.88
2023-08-29T03:05:53.872Z,17.86
2023-08-29T03:08:23.567Z,17.86
2023-08-29T03:10:51.525Z,17.85
2023-08-29T03:13:20.920Z,17.83
2023-08-29T03:15:50.316Z,17.83
2023-08-29T03:18:19.051Z,17.81
2023-08-29T03:20:48.001Z,17.80
2023-08-29T03:23:14.763Z,17.79
2023-08-29T03:25:44.234Z,17.78
2023-08-29T03:28:10.855Z,17.77
2023-08-29T03:30:37.574Z,17.77
2023-08-29T03:33:04.710Z,17.75
2023-08-29T03:35:31.446Z,17.74
2023-08-29T03:37:58.097Z,17.74
2023-08-29T03:40:24.739Z,17.72
2023-08-29T03:42:51.390Z,17.71
2023-08-29T03:45:20.603Z,17.70
2023-08-29T03:47:47.369Z,17.70
2023-08-29T03:50:14.070Z,17.68
2023-08-29T03:52:40.728Z,17.68
2023-08-29T03:55:07.713Z,17.67
2023-08-29T03:57:34.472Z,17.65
2023-08-29T04:00:08.067Z,17.65
2023-08-29T04:02:37.010Z,17.63
2023-08-29T04:05:16.244Z,17.63
2023-08-29T04:07:43.517Z,17.62
2023-08-29T04:10:10.722Z,17.61
2023-08-29T04:12:42.171Z,17.61
2023-08-29T04:15:09.566Z,17.59
2023-08-29T04:17:41.033Z,17.58
2023-08-29T04:20:14.128Z,17.58
2023-08-29T04:22:43.934Z,17.57
2023-08-29T04:25:10.534Z,17.56
2023-08-29T04:27:39.514Z,17.55
2023-08-29T04:30:06.843Z,17.54
2023-08-29T04:32:35.684Z,17.53
2023-08-29T04:35:02.439Z,17.52
2023-08-29T04:37:31.324Z,17.52
2023-08-29T04:40:00.887Z,17.51
2023-08-29T04:42:28.061Z,17.51
2023-08-29T04:44:55.227Z,17.48
2023-08-29T04:47:25.260Z,17.47
2023-08-29T04:49:51.989Z,17.47
2023-08-29T04:52:18.596Z,17.46
2023-08-29T04:54:45.239Z,17.45
2023-08-29T04:57:14.424Z,17.44
2023-08-29T04:59:41.768Z,17.43
2023-08-29T05:02:09.499Z,17.42
2023-08-29T05:04:36.433Z,17.41
2023-08-29T05:07:03.104Z,17.40
2023-08-29T05:09:31.840Z,17.39
2023-08-29T05:11:58.440Z,17.38
2023-08-29T05:14:25.068Z,17.39
2023-08-29T05:16:52.365Z,17.37
2023-08-29T05:19:19.018Z,17.38
2023-08-29T05:21:48.036Z,17.36
2023-08-29T05:24:14.659Z,17.36
2023-08-29T05:26:41.309Z,17.35
2023-08-29T05:29:08.142Z,17.35
2023-08-29T05:31:34.817Z,17.35
2023-08-29T05:34:01.442Z,17.35
2023-08-29T05:36:28.051Z,17.33
2023-08-29T05:38:54.780Z,17.32
2023-08-29T05:41:22.172Z,17.31
2023-08-29T05:43:48.839Z,17.32
2023-08-29T05:46:15.824Z,17.32
2023-08-29T05:48:45.384Z,17.33
2023-08-29T05:51:12.075Z,17.32
2023-08-29T05:53:38.707Z,17.31
2023-08-29T05:56:07.853Z,17.32
2023-08-29T05:58:37.533Z,17.31
2023-08-29T06:01:07.759Z,17.33
2023-08-29T06:03:37.561Z,17.32
2023-08-29T06:06:04.766Z,17.33
2023-08-29T06:08:34.573Z,17.33
2023-08-29T06:11:04.911Z,17.36
2023-08-29T06:13:31.930Z,17.36
2023-08-29T06:15:58.767Z,17.38
2023-08-29T06:18:28.414Z,17.39
2023-08-29T06:20:55.080Z,17.41
2023-08-29T06:23:21.676Z,17.44
2023-08-29T06:25:50.267Z,17.45
2023-08-29T06:28:16.999Z,17.46
2023-08-29T06:30:43.747Z,17.47
2023-08-29T06:33:10.646Z,17.50
2023-08-29T06:35:40.580Z,17.51
2023-08-29T06:38:09.966Z,17.54
2023-08-29T06:40:36.978Z,17.56
2023-08-29T06:43:03.866Z,17.57
2023-08-29T06:45:32.753Z,17.61
2023-08-29T06:47:59.386Z,17.62
2023-08-29T06:50:26.028Z,17.63
2023-08-29T06:52:52.622Z,17.66
2023-08-29T06:55:19.235Z,17.68
2023-08-29T06:57:45.935Z,17.70
2023-08-29T07:00:23.906Z,17.71
2023-08-29T07:02:52.158Z,17.74
2023-08-29T07:05:18.989Z,17.76
2023-08-29T07:07:45.626Z,17.79
2023-08-29T07:10:17.743Z,17.94
2023-08-29T07:12:44.384Z,18.10
2023-08-29T07:15:13.586Z,18.22
2023-08-29T07:17:42.285Z,18.29
2023-08-29T07:20:10.592Z,18.34
2023-08-29T07:22:44.454Z,18.39
2023-08-29T07:25:13.838Z,18.43
2023-08-29T07:27:40.855Z,18.47
2023-08-29T07:30:16.570Z,18.50
2023-08-29T07:32:43.966Z,18.54
2023-08-29T07:35:13.004Z,18.56
2023-08-29T07:37:41.878Z,18.60
2023-08-29T07:40:10.181Z,18.64
2023-08-29T07:42:36.849Z,18.67
2023-08-29T07:45:04.288Z,18.68
2023-08-29T07:47:35.915Z,18.72
2023-08-29T07:50:02.643Z,18.76
2023-08-29T07:52:29.408Z,18.80
2023-08-29T07:54:59.434Z,18.82
2023-08-29T07:57:26.082Z,18.83
2023-08-29T07:59:52.799Z,18.85
2023-08-29T08:02:19.427Z,18.88
2023-08-29T08:04:46.093Z,18.89
2023-08-29T08:07:12.750Z,18.91
2023-08-29T08:09:39.420Z,19.01
2023-08-29T08:12:09.316Z,19.08
2023-08-29T08:14:35.960Z,19.13
2023-08-29T08:17:04.754Z,19.16
2023-08-29T08:19:31.464Z,19.18
2023-08-29T08:22:01.024Z,19.24
2023-08-29T08:24:30.158Z,19.28
2023-08-29T08:26:56.760Z,19.33
2023-08-29T08:29:23.517Z,19.34
2023-08-29T08:31:53.200Z,19.38
2023-08-29T08:34:19.841Z,19.44
2023-08-29T08:36:48.822Z,19.46
2023-08-29T08:39:17.688Z,19.48
2023-08-29T08:41:44.996Z,19.50
2023-08-29T08:44:16.914Z,19.57
2023-08-29T08:46:44.810Z,19.62
2023-08-29T08:49:16.250Z,19.66
2023-08-29T08:51:43.048Z,19.66
2023-08-29T08:54:12.932Z,19.60
2023-08-29T08:56:39.994Z,19.52
2023-08-29T08:59:06.757Z,19.47
2023-08-29T09:01:33.487Z,19.44
2023-08-29T09:04:05.011Z,19.40
2023-08-29T09:06:31.741Z,19.35
2023-08-29T09:09:10.691Z,19.34
2023-08-29T09:11:42.889Z,19.35
2023-08-29T09:14:14.183Z,19.38
2023-08-29T09:16:44.163Z,19.38
2023-08-29T09:19:10.830Z,19.43
2023-08-29T09:21:43.546Z,19.46
2023-08-29T09:24:13.949Z,19.49
2023-08-29T09:26:42.047Z,19.49
2023-08-29T09:29:19.966Z,19.44
2023-08-29T09:31:50.081Z,19.41
2023-08-29T09:34:32.997Z,19.43
2023-08-29T09:37:04.542Z,19.42
2023-08-29T09:39:31.317Z,19.40
2023-08-29T09:42:08.923Z,19.39
2023-08-29T09:44:38.091Z,19.36
2023-08-29T09:47:10.739Z,19.37
2023-08-29T09:49:44.534Z,19.38
2023-08-29T09:52:11.728Z,19.38
2023-08-29T09:54:50.963Z,19.36
2023-08-29T09:57:20.910Z,19.37
2023-08-29T09:59:48.152Z,19.40
2023-08-29T10:02:19.801Z,19.44
2023-08-29T10:04:50.691Z,19.46
2023-08-29T10:07:23.260Z,19.47
2023-08-29T10:09:50.211Z,19.48
2023-08-29T10:12:20.297Z,19.51
2023-08-29T10:14:48.206Z,19.56
2023-08-29T10:17:29.935Z,19.58
2023-08-29T10:20:00.918Z,19.65
2023-08-29T10:22:31.316Z,19.67
2023-08-29T10:25:02.184Z,19.69
2023-08-29T10:27:31.122Z,19.68
2023-08-29T10:29:58.034Z,19.68
2023-08-29T10:32:28.003Z,19.70
2023-08-29T10:34:57.528Z,19.77
2023-08-29T10:37:31.532Z,19.78
2023-08-29T10:40:12.910Z,19.75
2023-08-29T10:43:01.918Z,19.77
2023-08-29T10:46:06.042Z,19.83
2023-08-29T10:48:47.617Z,19.85
2023-08-29T10:51:16.167Z,19.89
2023-08-29T10:53:48.967Z,19.92
2023-08-29T10:56:18.756Z,19.93
2023-08-29T10:58:54.062Z,19.93
2023-08-29T11:01:29.699Z,19.97
2023-08-29T11:03:58.007Z,19.98
2023-08-29T11:06:59.396Z,20.03
2023-08-29T11:09:29.527Z,20.11
2023-08-29T11:12:18.178Z,20.25
2023-08-29T11:14:56.757Z,20.40
2023-08-29T11:17:24.874Z,20.52
2023-08-29T11:19:59.811Z,20.63
2023-08-29T11:22:31.034Z,20.73
2023-08-29T11:24:58.862Z,20.80
2023-08-29T11:27:32.579Z,20.89
2023-08-29T11:32:36.060Z,21.08
2023-08-29T11:35:05.566Z,21.16
2023-08-29T11:37:35.770Z,21.24
2023-08-29T11:40:11.912Z,21.31
2023-08-29T11:43:26.042Z,21.38
2023-08-29T11:45:48.521Z,21.45
2023-08-29T11:48:27.388Z,21.52
2023-08-29T11:50:55.606Z,21.59
2023-08-29T11:53:30.687Z,21.66
2023-08-29T11:56:00.422Z,21.74
2023-08-29T11:58:38.976Z,21.85
2023-08-29T12:01:06.157Z,21.87
2023-08-29T12:03:36.361Z,21.85
2023-08-29T12:06:05.884Z,21.86
2023-08-29T12:08:41.058Z,21.86
2023-08-29T12:11:11.483Z,21.85
2023-08-29T12:13:38.485Z,21.87
2023-08-29T12:16:16.554Z,21.89
2023-08-29T12:18:43.728Z,21.90
2023-08-29T12:21:21.386Z,21.97
2023-08-29T12:23:50.552Z,22.05
2023-08-29T12:26:17.263Z,22.11
2023-08-29T12:28:44.276Z,22.09
2023-08-29T12:31:11.830Z,22.12
2023-08-29T12:33:38.707Z,22.15
2023-08-29T12:36:05.836Z,22.17
2023-08-29T12:38:32.746Z,22.19
2023-08-29T12:40:59.454Z,22.24
2023-08-29T12:43:26.212Z,22.30
2023-08-29T12:45:59.799Z,22.42
2023-08-29T12:48:27.515Z,22.44
2023-08-29T12:50:57.171Z,22.47
2023-08-29T12:53:23.842Z,22.51
2023-08-29T12:55:51.888Z,22.56
2023-08-29T12:58:20.878Z,22.58
2023-08-29T13:00:50.104Z,22.54
2023-08-29T13:03:16.987Z,22.57
2023-08-29T13:05:44.238Z,22.56
2023-08-29T13:08:10.888Z,22.55
2023-08-29T13:10:40.696Z,22.60
2023-08-29T13:13:07.324Z,22.62
2023-08-29T13:15:45.237Z,22.58
2023-08-29T13:18:19.720Z,22.59
2023-08-29T13:20:46.685Z,22.66
2023-08-29T13:23:13.357Z,22.72
2023-08-29T13:25:42.983Z,22.79
2023-08-29T13:28:11.869Z,22.95
2023-08-29T13:30:38.558Z,23.03
2023-08-29T13:33:05.431Z,23.08
2023-08-29T13:35:32.124Z,23.19
2023-08-29T13:37:58.797Z,23.30
2023-08-29T13:40:25.456Z,23.24
2023-08-29T13:42:54.404Z,23.22
2023-08-29T13:45:21.134Z,23.12
2023-08-29T13:47:51.096Z,23.08
2023-08-29T13:50:20.831Z,23.08
2023-08-29T13:52:47.466Z,23.00
2023-08-29T13:55:14.228Z,22.95
2023-08-29T13:57:40.932Z,22.89
2023-08-29T14:00:08.995Z,22.80
2023-08-29T14:02:37.961Z,22.75
2023-08-29T14:05:05.076Z,22.75
2023-08-29T14:07:31.715Z,22.79
2023-08-29T14:09:58.400Z,22.80
2023-08-29T14:12:25.035Z,22.85
2023-08-29T14:14:51.830Z,22.88
2023-08-29T14:17:19.651Z,22.89
2023-08-29T14:19:46.397Z,22.88
2023-08-29T14:22:15.215Z,22.91
2023-08-29T14:24:46.833Z,22.93
2023-08-29T14:27:18.139Z,22.98
2023-08-29T14:29:47.127Z,23.00
2023-08-29T14:32:16.087Z,23.04
2023-08-29T14:34:45.940Z,23.15
2023-08-29T14:37:14.618Z,23.16
2023-08-29T14:39:41.356Z,23.15
2023-08-29T14:42:10.186Z,23.16
2023-08-29T14:44:36.929Z,23.15
2023-08-29T14:47:06.695Z,23.10
2023-08-29T14:49:33.316Z,23.05
2023-08-29T14:52:00.061Z,22.98
2023-08-29T14:54:26.870Z,22.92
2023-08-29T14:56:53.628Z,22.86
2023-08-29T14:59:20.278Z,22.75
2023-08-29T15:01:46.915Z,22.69
2023-08-29T15:04:18.270Z,22.64
2023-08-29T15:06:45.018Z,22.60
2023-08-29T15:09:11.718Z,22.60
2023-08-29T15:11:38.541Z,22.60
2023-08-29T15:14:05.445Z,22.57
2023-08-29T15:16:36.286Z,22.58
2023-08-29T15:19:07.496Z,22.62
2023-08-29T15:21:34.125Z,22.63
2023-08-29T15:24:00.919Z,22.64
2023-08-29T15:26:27.719Z,22.63
2023-08-29T15:28:57.354Z,22.62
2023-08-29T15:31:24.026Z,22.57
2023-08-29T15:33:53.132Z,22.55
2023-08-29T15:36:24.738Z,22.53
2023-08-29T15:38:51.794Z,22.48
2023-08-29T15:41:18.457Z,22.44
2023-08-29T15:43:46.927Z,22.41
2023-08-29T15:46:13.683Z,22.41
2023-08-29T15:48:40.403Z,22.34
2023-08-29T15:51:07.096Z,22.34
2023-08-29T15:53:37.305Z,22.30
2023-08-29T15:56:06.237Z,22.23
2023-08-29T15:58:35.216Z,22.19
2023-08-29T16:01:11.603Z,22.13
2023-08-29T16:03:38.463Z,22.10
2023-08-29T16:06:07.697Z,22.09
2023-08-29T16:08:39.676Z,22.03
2023-08-29T16:11:08.690Z,21.94
2023-08-29T16:13:37.701Z,21.91
2023-08-29T16:16:04.680Z,21.81
2023-08-29T16:18:32.189Z,21.71
2023-08-29T16:21:01.068Z,21.61
2023-08-29T16:23:29.897Z,21.57
2023-08-29T16:25:56.624Z,21.51
2023-08-29T16:28:24.482Z,21.43
2023-08-29T16:30:51.239Z,21.32
2023-08-29T16:33:21.084Z,21.23
2023-08-29T16:35:47.729Z,21.18
2023-08-29T16:38:14.370Z,21.14
2023-08-29T16:40:43.328Z,21.11
2023-08-29T16:43:09.944Z,21.04
2023-08-29T16:45:36.594Z,20.96
2023-08-29T16:48:03.646Z,20.90
2023-08-29T16:50:30.298Z,20.82
2023-08-29T16:52:57.450Z,20.76
2023-08-29T16:55:28.817Z,20.71
2023-08-29T16:58:00.674Z,20.68
2023-08-29T17:00:30.176Z,20.64
2023-08-29T17:02:59.094Z,20.60
2023-08-29T17:05:28.377Z,20.55
2023-08-29T17:07:55.047Z,20.52
2023-08-29T17:10:23.007Z,20.48
2023-08-29T17:12:49.714Z,20.41
2023-08-29T17:15:16.400Z,20.34
2023-08-29T17:17:43.160Z,20.26
2023-08-29T17:20:10.707Z,20.22
2023-08-29T17:22:37.331Z,20.17
2023-08-29T17:25:04.452Z,20.13
2023-08-29T17:27:36.024Z,20.08
2023-08-29T17:30:06.526Z,20.01
2023-08-29T17:32:36.165Z,19.98
2023-08-29T17:35:03.044Z,19.94
2023-08-29T17:37:31.948Z,19.92
2023-08-29T17:39:58.747Z,19.90
2023-08-29T17:42:25.534Z,19.87
2023-08-29T17:44:53.279Z,19.83
2023-08-29T17:47:19.993Z,19.80
2023-08-29T17:49:46.672Z,19.78
2023-08-29T17:52:13.407Z,19.76
2023-08-29T17:54:42.549Z,19.71
2023-08-29T17:57:09.194Z,19.69
2023-08-29T17:59:35.872Z,19.64
2023-08-29T18:02:05.271Z,19.62
2023-08-29T18:04:34.227Z,19.57
2023-08-29T18:07:00.945Z,19.52
2023-08-29T18:09:27.597Z,19.50
2023-08-29T18:11:56.336Z,19.48
2023-08-29T18:14:22.994Z,19.45
2023-08-29T18:16:50.951Z,19.43
2023-08-29T18:19:17.706Z,19.40
2023-08-29T18:21:46.900Z,19.39
2023-08-29T18:24:15.937Z,19.35
2023-08-29T18:26:44.856Z,19.37
2023-08-29T18:29:13.965Z,19.37
2023-08-29T18:31:40.715Z,19.48
2023-08-29T18:34:07.372Z,19.59
2023-08-29T18:36:38.903Z,19.68
2023-08-29T18:39:10.888Z,19.75
2023-08-29T18:41:37.501Z,19.80
2023-08-29T18:44:06.497Z,19.86
2023-08-29T18:46:35.408Z,19.90
2023-08-29T18:49:04.640Z,19.95
2023-08-29T18:51:31.309Z,20.00
2023-08-29T18:53:57.997Z,20.05
2023-08-29T18:56:24.665Z,20.06
2023-08-29T18:58:51.363Z,20.11
2023-08-29T19:01:18.116Z,20.13
2023-08-29T19:03:44.911Z,20.15
2023-08-29T19:06:15.078Z,20.18
2023-08-29T19:08:41.949Z,20.22
2023-08-29T19:11:12.820Z,20.25
2023-08-29T19:13:41.622Z,20.32
2023-08-29T19:16:08.497Z,20.48
2023-08-29T19:18:40.222Z,20.49
2023-08-29T19:21:07.295Z,20.46
2023-08-29T19:23:34.012Z,20.44
2023-08-29T19:26:00.696Z,20.43
2023-08-29T19:28:32.067Z,20.40
2023-08-29T19:30:58.735Z,20.38
2023-08-29T19:33:25.548Z,20.38
2023-08-29T19:35:52.229Z,20.38
2023-08-29T19:38:18.859Z,20.37
2023-08-29T19:40:50.017Z,20.37
2023-08-29T19:43:18.902Z,20.37
2023-08-29T19:45:45.514Z,20.37
2023-08-29T19:48:14.541Z,20.38
2023-08-29T19:50:41.255Z,20.37
2023-08-29T19:53:07.893Z,20.39
2023-08-29T19:55:37.009Z,20.42
2023-08-29T19:58:03.919Z,20.43
2023-08-29T20:00:32.926Z,20.43
2023-08-29T20:03:01.447Z,20.43
2023-08-29T20:05:30.483Z,20.42
2023-08-29T20:07:58.965Z,20.42
2023-08-29T20:10:26.791Z,20.41
2023-08-29T20:12:55.705Z,20.40
2023-08-29T20:15:22.326Z,20.40
2023-08-29T20:17:51.501Z,20.38
2023-08-29T20:20:18.197Z,20.38
2023-08-29T20:22:47.233Z,20.37
2023-08-29T20:25:16.331Z,20.36
2023-08-29T20:27:45.179Z,20.34
2023-08-29T20:30:12.380Z,20.34
2023-08-29T20:32:42.078Z,20.32
2023-08-29T20:35:11.979Z,20.36
2023-08-29T20:37:38.667Z,20.41
2023-08-29T20:40:08.853Z,20.37
2023-08-29T20:42:37.110Z,20.32
2023-08-29T20:45:04.848Z,20.28
2023-08-29T20:47:31.538Z,20.24
2023-08-29T20:49:58.188Z,20.22
2023-08-29T20:52:29.259Z,20.19
2023-08-29T20:54:58.148Z,20.18
2023-08-29T20:57:24.780Z,20.17
2023-08-29T20:59:51.366Z,20.15
2023-08-29T21:02:18.010Z,20.15
2023-08-29T21:04:44.965Z,20.14
2023-08-29T21:07:11.843Z,20.13
2023-08-29T21:09:38.510Z,20.11
2023-08-29T21:12:06.309Z,20.09
2023-08-29T21:14:32.990Z,20.09
2023-08-29T21:16:59.669Z,20.03
2023-08-29T21:19:26.321Z,19.94
2023-08-29T21:21:52.947Z,19.86
2023-08-29T21:24:21.804Z,19.79
2023-08-29T21:26:50.684Z,19.72
2023-08-29T21:29:19.569Z,19.65
2023-08-29T21:31:46.350Z,19.60
2023-08-29T21:34:15.449Z,19.56
2023-08-29T21:36:42.105Z,19.52
2023-08-29T21:39:10.872Z,19.47
2023-08-29T21:41:43.521Z,19.44
2023-08-29T21:44:11.830Z,19.41
2023-08-29T21:46:41.072Z,19.39
2023-08-29T21:49:07.718Z,19.36
2023-08-29T21:51:36.889Z,19.33
2023-08-29T21:54:05.768Z,19.32
2023-08-29T21:56:32.416Z,19.29
2023-08-29T21:58:59.150Z,19.27
2023-08-29T22:01:25.888Z,19.25
2023-08-29T22:03:52.561Z,19.23
2023-08-29T22:06:19.284Z,19.22
2023-08-29T22:08:45.972Z,19.20
2023-08-29T22:11:12.687Z,19.17
2023-08-29T22:13:44.040Z,19.16
2023-08-29T22:16:13.192Z,19.14
2023-08-29T22:18:40.011Z,19.12
2023-08-29T22:21:09.713Z,19.10
2023-08-29T22:23:36.353Z,19.08
2023-08-29T22:26:09.485Z,19.05
2023-08-29T22:28:36.269Z,19.04
2023-08-29T22:31:03.021Z,19.02
2023-08-29T22:33:32.236Z,18.99
2023-08-29T22:35:59.390Z,18.97
2023-08-29T22:38:28.290Z,18.96
2023-08-29T22:41:15.385Z,18.95
2023-08-29T22:43:42.462Z,18.91
2023-08-29T22:46:11.179Z,18.90
2023-08-29T22:48:37.920Z,18.88
2023-08-29T22:51:05.393Z,18.85
2023-08-29T22:53:32.015Z,18.82
2023-08-29T22:56:03.741Z,18.79
2023-08-29T22:58:30.411Z,18.76
2023-08-29T23:00:57.048Z,18.73
2023-08-29T23:03:23.713Z,18.70
2023-08-29T23:05:50.392Z,18.68
2023-08-29T23:08:17.422Z,18.67
2023-08-29T23:10:44.456Z,18.66
2023-08-29T23:13:13.337Z,18.65
2023-08-29T23:15:40.077Z,18.64
2023-08-29T23:18:11.811Z,18.64
2023-08-29T23:20:38.790Z,18.61
2023-08-29T23:23:10.169Z,18.59
2023-08-29T23:25:36.858Z,18.57
2023-08-29T23:28:03.694Z,18.53
2023-08-29T23:30:32.868Z,18.50
2023-08-29T23:33:04.332Z,18.46
2023-08-29T23:35:31.047Z,18.43
2023-08-29T23:37:57.683Z,18.41
2023-08-29T23:40:24.339Z,18.38
2023-08-29T23:42:50.960Z,18.36
2023-08-29T23:45:19.795Z,18.33
2023-08-29T23:47:49.176Z,18.31
2023-08-29T23:50:18.209Z,18.30
2023-08-29T23:52:44.864Z,18.26
2023-08-29T23:55:11.470Z,18.25
2023-08-29T23:57:38.168Z,18.24
